Terminal Aerodrome Forecast
Issued by NWS

Home | Current Version | Previous Version | Graphics & Text | Print | Product List | Glossary On
Versions: 1 2 3 4 5 6 7 8 9 10 11 12 13 14 15 16 17 18 19 20 21 22
000
FTUS42 KMHX 010520
TAFPGV
TAF
KPGV 010520Z 0106/0206 03008KT P6SM BKN060
     FM010900 05007KT P6SM OVC030
     FM011300 04005KT P6SM BKN020
     FM011900 15005KT P6SM VCSH BKN020
     FM012200 23006KT 5SM -RA OVC010
      AMD LTD TO CLD VIS AND WIND=

USA.gov is the U.S. government's official web portal to all federal, state and local government web resources and services.